Time;durP1;ratioP1;P1;durP2;ratioP2;P2;SDS_P1;SDS_P2;PMS_P1;PMS_P2;Temp;Humidity;BMP_temperature;BMP_pressure;BME280_temperature;BME280_humidity;BME280_pressure;Samples;Min_cycle;Max_cycle;Signal;HPM_P1;HPM_P2
2020/12/08 00:02:14;;;;;;;85.65;41.35;;;;;;;1.58;91.96;100216.53;5061240;28;20248;-70
2020/12/08 00:04:40;;;;;;;92.18;44.28;;;;;;;1.58;92.80;100215.66;5062412;28;20070;-69
2020/12/08 00:07:06;;;;;;;95.07;43.03;;;;;;;1.56;92.21;100210.53;5061966;28;20047;-69
2020/12/08 00:09:32;;;;;;;92.05;43.22;;;;;;;1.57;92.06;100216.63;5062503;28;20189;-69
2020/12/08 00:11:57;;;;;;;95.68;43.38;;;;;;;1.57;92.16;100209.59;5059208;28;20111;-70
2020/12/08 00:14:23;;;;;;;93.90;43.50;;;;;;;1.60;92.36;100213.78;5044923;28;20056;-70
2020/12/08 00:16:48;;;;;;;91.47;42.03;;;;;;;1.49;91.95;100185.63;5063712;28;20024;-71
2020/12/08 00:19:14;;;;;;;84.05;40.47;;;;;;;1.21;91.10;100135.03;5060614;28;20471;-70
2020/12/08 00:21:40;;;;;;;80.45;40.17;;;;;;;1.71;90.79;100216.47;5057062;28;20102;-70
2020/12/08 00:24:05;;;;;;;83.22;40.95;;;;;;;1.67;90.99;100213.22;5060779;28;20049;-70
2020/12/08 00:26:31;;;;;;;85.60;40.35;;;;;;;1.62;91.68;100218.00;5063243;28;20494;-70
2020/12/08 00:28:56;;;;;;;81.78;39.78;;;;;;;1.67;91.49;100215.84;5056731;28;20033;-70
2020/12/08 00:31:26;;;;;;;80.72;40.65;;;;;;;1.74;91.38;100224.13;5057700;28;20036;-71
2020/12/08 00:33:52;;;;;;;76.03;38.60;;;;;;;1.74;90.77;100224.13;5061714;28;20064;-71
2020/12/08 00:36:17;;;;;;;76.85;39.38;;;;;;;1.72;91.25;100219.94;5063445;28;20082;-70
2020/12/08 00:38:43;;;;;;;73.47;38.72;;;;;;;1.72;91.46;100225.22;5057070;28;20029;-71
2020/12/08 00:41:15;;;;;;;80.30;39.42;;;;;;;1.72;91.38;100220.78;5058444;28;20509;-70
2020/12/08 00:43:41;;;;;;;80.32;39.47;;;;;;;1.73;91.23;100221.63;5074378;28;20025;-70
2020/12/08 00:46:08;;;;;;;80.68;39.47;;;;;;;1.59;91.47;100185.78;5061985;28;20533;-71
2020/12/08 00:48:34;;;;;;;79.03;39.15;;;;;;;1.84;90.84;100224.31;5062238;28;20321;-70
2020/12/08 00:51:01;;;;;;;72.88;36.42;;;;;;;1.84;91.04;100224.31;5063384;28;20523;-70
2020/12/08 00:53:27;;;;;;;78.22;38.78;;;;;;;1.82;91.10;100216.56;5061943;28;20085;-69
2020/12/08 00:55:52;;;;;;;73.57;36.63;;;;;;;1.19;91.09;100116.72;5066926;28;20033;-70
2020/12/08 00:58:18;;;;;;;78.43;40.63;;;;;;;1.70;91.61;100204.25;5064577;28;20119;-70
2020/12/08 01:00:43;;;;;;;77.43;40.33;;;;;;;1.92;91.33;100216.69;5061696;28;20392;-71
2020/12/08 01:03:09;;;;;;;76.13;38.25;;;;;;;1.87;91.15;100204.81;5066172;28;20047;-70
2020/12/08 01:05:34;;;;;;;76.30;39.38;;;;;;;1.99;91.07;100219.72;5045246;28;20453;-70
2020/12/08 01:08:00;;;;;;;79.65;40.47;;;;;;;1.91;90.96;100236.06;5067391;28;20036;-71
2020/12/08 01:10:25;;;;;;;75.00;39.80;;;;;;;1.91;91.60;100232.59;5063234;28;20044;-70
2020/12/08 01:12:51;;;;;;;77.50;39.67;;;;;;;1.93;91.41;100234.16;5066545;28;20387;-70
2020/12/08 01:15:16;;;;;;;77.10;39.78;;;;;;;1.93;91.54;100236.78;5066037;28;20106;-71
2020/12/08 01:17:42;;;;;;;74.95;39.20;;;;;;;1.93;91.75;100238.59;5058370;28;20471;-71
2020/12/08 01:20:07;;;;;;;81.22;41.15;;;;;;;1.93;91.66;100247.31;5066021;28;20049;-71
2020/12/08 01:22:33;;;;;;;80.72;41.88;;;;;;;1.89;92.04;100247.66;5061336;28;20320;-70
2020/12/08 01:24:58;;;;;;;73.60;39.88;;;;;;;1.89;91.41;100218.72;5081248;28;20056;-71
2020/12/08 01:27:23;;;;;;;82.28;41.53;;;;;;;2.02;91.36;100243.19;5053763;28;20080;-70
2020/12/08 01:29:49;;;;;;;78.10;39.67;;;;;;;1.98;91.20;100239.94;5065169;28;20090;-71
2020/12/08 01:32:14;;;;;;;76.60;40.70;;;;;;;2.01;91.18;100245.94;5058304;28;20029;-69
2020/12/08 01:34:40;;;;;;;70.82;38.45;;;;;;;2.00;91.11;100242.44;5064852;28;20040;-71
2020/12/08 01:37:06;;;;;;;67.38;37.25;;;;;;;1.94;91.45;100242.91;5079267;28;20098;-70
2020/12/08 01:39:32;;;;;;;75.32;39.80;;;;;;;1.84;91.71;100243.56;5080999;28;20040;-71
2020/12/08 01:41:57;;;;;;;72.70;37.95;;;;;;;1.53;91.60;100197.59;5078392;28;20040;-71
2020/12/08 01:44:23;;;;;;;70.15;37.60;;;;;;;1.67;91.86;100233.44;5062530;28;20037;-70
2020/12/08 01:46:48;;;;;;;74.18;38.17;;;;;;;1.57;93.04;100227.13;5064946;28;20240;-71
2020/12/08 01:49:14;;;;;;;74.10;38.90;;;;;;;1.58;92.92;100232.31;5057273;28;20033;-70
2020/12/08 01:51:39;;;;;;;64.63;35.53;;;;;;;1.61;92.36;100234.72;5064357;28;20449;-71
2020/12/08 01:54:05;;;;;;;68.63;36.85;;;;;;;1.66;91.97;100235.22;5063734;28;20028;-70
2020/12/08 01:56:30;;;;;;;69.18;37.47;;;;;;;1.44;92.12;100212.25;5065286;28;20047;-71
2020/12/08 01:58:56;;;;;;;73.10;39.35;;;;;;;1.59;93.05;100248.91;5047563;28;20031;-70
2020/12/08 02:01:21;;;;;;;80.80;40.95;;;;;;;1.57;93.23;100242.91;5063359;28;20041;-71
2020/12/08 02:03:48;;;;;;;73.43;39.60;;;;;;;1.62;92.50;100251.34;5066259;28;20154;-70
2020/12/08 02:06:13;;;;;;;74.53;40.47;;;;;;;1.61;93.11;100252.28;5063731;28;20044;-70
2020/12/08 02:08:39;;;;;;;79.07;41.47;;;;;;;1.52;93.47;100243.25;5065319;28;20040;-70
2020/12/08 02:11:05;;;;;;;86.22;42.28;;;;;;;1.50;93.64;100242.50;5059849;28;20052;-70
2020/12/08 02:13:30;;;;;;;81.20;41.58;;;;;;;1.43;93.96;100250.00;5077077;28;20149;-70
2020/12/08 02:15:56;;;;;;;81.45;43.22;;;;;;;1.40;94.09;100244.97;5079514;28;20495;-70
2020/12/08 02:18:22;;;;;;;81.95;42.60;;;;;;;1.51;93.78;100242.44;5062780;28;20449;-70
2020/12/08 02:20:58;;;;;;;81.82;43.00;;;;;;;1.53;93.73;100255.44;5058903;28;20098;-70
2020/12/08 02:23:23;;;;;;;87.45;44.15;;;;;;;1.49;93.57;100261.91;5056881;28;20140;-71
2020/12/08 02:25:56;;;;;;;93.63;47.20;;;;;;;1.35;94.65;100240.06;5080372;28;20363;-71
2020/12/08 02:28:21;;;;;;;96.88;46.38;;;;;;;0.96;94.58;100191.94;5064718;28;20029;-71
2020/12/08 02:30:47;;;;;;;116.28;51.50;;;;;;;1.41;94.95;100244.03;5061670;28;20485;-71
2020/12/08 02:33:12;;;;;;;115.80;53.50;;;;;;;1.38;94.79;100245.06;5064753;28;20367;-71
2020/12/08 02:35:38;;;;;;;124.50;54.83;;;;;;;1.38;94.69;100241.63;5063185;28;20032;-71
2020/12/08 02:38:03;;;;;;;119.20;53.53;;;;;;;1.35;94.94;100239.19;5064883;28;20572;-71
2020/12/08 02:40:29;;;;;;;116.03;53.20;;;;;;;1.33;95.08;100243.72;5057282;28;20037;-71
2020/12/08 02:42:54;;;;;;;128.23;56.97;;;;;;;0.41;95.35;100089.78;5062705;28;20036;-71
2020/12/08 02:45:19;;;;;;;122.38;55.17;;;;;;;1.30;95.80;100236.91;5062636;28;20032;-71
2020/12/08 02:47:46;;;;;;;118.07;55.08;;;;;;;1.24;95.38;100241.75;5064696;28;20037;-71
2020/12/08 02:50:11;;;;;;;129.82;56.80;;;;;;;1.14;95.78;100231.88;5046744;28;20560;-71
2020/12/08 02:52:37;;;;;;;132.70;56.47;;;;;;;1.08;96.05;100234.94;5061766;28;20041;-70
2020/12/08 02:55:02;;;;;;;133.68;55.97;;;;;;;1.01;96.19;100236.31;5063637;28;20028;-70
2020/12/08 02:57:28;;;;;;;137.18;56.95;;;;;;;0.99;95.83;100233.78;5063007;28;20037;-72
2020/12/08 02:59:53;;;;;;;135.43;58.00;;;;;;;0.98;97.21;100231.25;5061731;28;20082;-71
2020/12/08 03:02:19;;;;;;;132.65;56.90;;;;;;;0.96;97.26;100228.72;5061589;28;20032;-71
2020/12/08 03:04:44;;;;;;;124.63;55.03;;;;;;;0.90;96.57;100231.78;5065811;28;20499;-70
2020/12/08 03:07:10;;;;;;;132.30;57.80;;;;;;;0.90;96.95;100235.25;5064701;28;20045;-70
2020/12/08 03:09:35;;;;;;;128.30;57.03;;;;;;;0.78;96.85;100215.06;5063320;28;20113;-70
2020/12/08 03:12:01;;;;;;;126.55;56.15;;;;;;;0.76;96.81;100216.97;5058260;28;20032;-70
2020/12/08 03:14:26;;;;;;;130.93;57.22;;;;;;;0.92;97.23;100240.41;5059176;28;20059;-71
2020/12/08 03:16:55;;;;;;;133.45;57.72;;;;;;;0.94;97.35;100243.78;5061818;28;20063;-71
2020/12/08 03:19:21;;;;;;;130.88;57.08;;;;;;;0.96;97.04;100243.66;5064628;28;20743;-70
2020/12/08 03:21:46;;;;;;;128.25;56.08;;;;;;;0.99;97.35;100243.47;5062324;28;20274;-70
2020/12/08 03:24:12;;;;;;;126.75;55.70;;;;;;;0.73;97.05;100204.88;5063279;28;20071;-70
2020/12/08 03:26:37;;;;;;;129.75;56.17;;;;;;;0.79;96.82;100211.50;5063444;28;20372;-71
2020/12/08 03:29:03;;;;;;;128.27;56.83;;;;;;;0.98;96.84;100242.59;5057300;28;20043;-70
2020/12/08 03:31:28;;;;;;;127.97;55.17;;;;;;;0.98;97.04;100249.66;5062846;28;20039;-70
2020/12/08 03:33:54;;;;;;;132.55;55.60;;;;;;;0.95;96.78;100252.50;5060830;28;20049;-70
2020/12/08 03:36:19;;;;;;;137.52;60.08;;;;;;;0.95;97.37;100244.59;5061381;28;20029;-70
2020/12/08 03:38:46;;;;;;;143.80;62.47;;;;;;;0.78;97.65;100209.00;5078913;28;20537;-70
2020/12/08 03:41:18;;;;;;;134.02;57.80;;;;;;;0.95;97.23;100250.69;5061215;28;20580;-71
2020/12/08 03:43:44;;;;;;;137.32;56.55;;;;;;;0.87;97.24;100239.88;5060155;28;20072;-72
2020/12/08 03:46:09;;;;;;;123.78;54.65;;;;;;;0.85;97.04;100244.38;5063095;28;20039;-70
2020/12/08 03:48:35;;;;;;;128.35;55.47;;;;;;;0.81;96.99;100242.94;5061489;28;20503;-70
2020/12/08 03:51:00;;;;;;;126.07;55.63;;;;;;;0.75;96.55;100242.41;5062335;28;20041;-70
2020/12/08 03:53:26;;;;;;;130.50;55.85;;;;;;;0.71;96.52;100242.72;5064272;28;20036;-70
2020/12/08 03:55:51;;;;;;;135.57;55.50;;;;;;;0.34;97.14;100193.53;5065051;28;20044;-70
2020/12/08 03:58:17;;;;;;;133.80;55.78;;;;;;;0.61;96.81;100248.56;5062882;28;20017;-70
2020/12/08 04:00:42;;;;;;;136.93;56.63;;;;;;;0.56;96.77;100250.69;5059356;28;20028;-71
2020/12/08 04:03:09;;;;;;;129.30;54.38;;;;;;;0.09;97.00;100176.81;5057941;28;20115;-72
2020/12/08 04:05:35;;;;;;;139.98;56.53;;;;;;;0.53;97.54;100260.56;5063889;28;20033;-70
2020/12/08 04:08:00;;;;;;;152.20;59.47;;;;;;;0.04;97.93;100176.25;5061115;28;20501;-71
2020/12/08 04:10:26;;;;;;;139.43;58.65;;;;;;;0.63;97.71;100269.50;5063129;28;20026;-70
2020/12/08 04:12:51;;;;;;;143.07;56.67;;;;;;;0.66;97.98;100269.31;5063609;28;20036;-70
2020/12/08 04:15:17;;;;;;;142.98;58.42;;;;;;;0.69;97.91;100266.44;5063397;28;20032;-70
2020/12/08 04:17:42;;;;;;;149.75;58.83;;;;;;;0.73;98.02;100267.94;5063393;28;20434;-71
2020/12/08 04:20:08;;;;;;;135.93;56.90;;;;;;;0.76;97.77;100264.25;5062612;28;20029;-70
2020/12/08 04:22:33;;;;;;;134.95;55.10;;;;;;;0.79;98.45;100268.47;5060503;28;20036;-70
2020/12/08 04:24:59;;;;;;;140.07;55.53;;;;;;;0.82;98.18;100265.59;5065272;28;20048;-71
2020/12/08 04:27:25;;;;;;;141.40;56.13;;;;;;;0.86;98.04;100269.72;5081760;28;20033;-70
2020/12/08 04:29:50;;;;;;;129.70;54.97;;;;;;;0.91;98.19;100273.72;5066929;28;20452;-70
2020/12/08 04:32:15;;;;;;;121.53;53.40;;;;;;;0.93;97.54;100272.78;5063732;28;20044;-70
2020/12/08 04:34:41;;;;;;;122.53;53.28;;;;;;;0.95;97.32;100270.88;5065822;28;20033;-70
2020/12/08 04:37:08;;;;;;;115.82;50.95;;;;;;;0.98;97.17;100273.31;5066253;28;20072;-70
2020/12/08 04:39:34;;;;;;;119.45;52.35;;;;;;;1.00;97.50;100268.78;5068143;28;20459;-71
2020/12/08 04:42:00;;;;;;;114.90;50.95;;;;;;;1.04;97.03;100270.25;5063449;28;20033;-70
2020/12/08 04:44:26;;;;;;;110.22;50.58;;;;;;;1.06;96.47;100281.50;5064369;28;20020;-72
2020/12/08 04:46:55;;;;;;;101.88;48.83;;;;;;;1.10;96.86;100285.59;5067544;28;20063;-69
2020/12/08 04:49:22;;;;;;;106.32;49.47;;;;;;;0.93;96.30;100260.50;5073224;28;20041;-71
2020/12/08 04:51:47;;;;;;;104.70;48.30;;;;;;;1.10;96.35;100295.25;5047389;28;20106;-70
2020/12/08 04:54:12;;;;;;;108.40;49.70;;;;;;;1.10;96.09;100296.13;5064738;28;20053;-70
2020/12/08 04:56:38;;;;;;;114.30;50.40;;;;;;;1.08;96.22;100295.38;5068056;28;20024;-70
2020/12/08 04:59:06;;;;;;;108.20;49.20;;;;;;;1.04;96.56;100300.00;5083342;28;20498;-70
2020/12/08 05:01:31;;;;;;;107.75;49.22;;;;;;;1.03;96.12;100306.19;5044991;28;20127;-71
2020/12/08 05:04:00;;;;;;;109.05;50.55;;;;;;;1.04;96.41;100297.38;5065835;28;20028;-70
2020/12/08 05:06:26;;;;;;;110.80;50.08;;;;;;;1.08;96.98;100298.00;5067587;28;20330;-70
2020/12/08 05:09:12;;;;;;;101.32;46.35;;;;;;;1.08;96.18;100297.16;5080982;28;20037;-70
2020/12/08 05:11:37;;;;;;;103.00;47.58;;;;;;;1.06;96.89;100300.75;5062589;28;20049;-70
2020/12/08 05:14:04;;;;;;;96.72;46.60;;;;;;;1.11;96.84;100302.19;5062685;28;20040;-70
2020/12/08 05:16:30;;;;;;;99.38;46.28;;;;;;;0.95;96.71;100281.38;5052619;28;20044;-70
2020/12/08 05:19:08;;;;;;;103.05;48.25;;;;;;;1.09;96.96;100301.50;5064487;28;20032;-70
2020/12/08 05:21:34;;;;;;;103.03;47.63;;;;;;;1.08;96.56;100302.44;5063615;28;20047;-70
2020/12/08 05:23:59;;;;;;;106.70;47.17;;;;;;;1.05;97.12;100296.44;5046455;28;20080;-70
2020/12/08 05:26:27;;;;;;;100.57;46.80;;;;;;;0.57;97.70;100220.84;5066350;28;20033;-70
2020/12/08 05:28:58;;;;;;;89.80;44.13;;;;;;;0.83;97.56;100264.66;5065661;28;20093;-70
2020/12/08 05:31:26;;;;;;;88.95;41.38;;;;;;;0.99;97.17;100296.84;5045091;28;20047;-70
2020/12/08 05:33:51;;;;;;;79.33;39.27;;;;;;;0.84;97.82;100277.72;5062733;28;20236;-70
2020/12/08 05:36:17;;;;;;;70.53;37.13;;;;;;;1.04;97.22;100297.38;5046395;28;20474;-70
2020/12/08 05:38:42;;;;;;;72.22;36.17;;;;;;;1.04;97.33;100307.88;5064180;28;20735;-69
2020/12/08 05:41:08;;;;;;;68.68;36.05;;;;;;;1.05;97.07;100311.34;5044481;28;20044;-70
2020/12/08 05:43:40;;;;;;;60.35;33.00;;;;;;;1.04;96.87;100314.91;5079001;28;20040;-70
2020/12/08 05:46:06;;;;;;;55.33;30.33;;;;;;;1.14;96.60;100312.50;5062442;28;20119;-70
2020/12/08 05:48:32;;;;;;;56.25;31.63;;;;;;;1.11;96.60;100313.56;5061840;28;20039;-69
2020/12/08 05:51:02;;;;;;;54.90;30.80;;;;;;;1.09;96.62;100315.44;5065066;28;20036;-69
2020/12/08 05:53:28;;;;;;;53.80;31.08;;;;;;;0.86;96.09;100282.84;5067474;28;20059;-70
2020/12/08 05:56:08;;;;;;;55.75;30.83;;;;;;;1.01;96.69;100321.22;5055933;28;20483;-70
2020/12/08 05:58:34;;;;;;;51.30;31.23;;;;;;;0.98;96.65;100316.16;5028088;28;20533;-69
2020/12/08 06:01:03;;;;;;;48.78;29.33;;;;;;;0.95;96.52;100320.81;5059263;28;20517;-70
2020/12/08 06:03:29;;;;;;;52.40;30.90;;;;;;;0.71;96.96;100276.88;5053626;28;20060;-70
2020/12/08 06:06:04;;;;;;;56.03;31.23;;;;;;;0.81;96.87;100305.97;5047512;28;20517;-70
2020/12/08 06:08:30;;;;;;;55.03;30.27;;;;;;;0.87;96.63;100316.91;5055963;28;20119;-69
2020/12/08 06:10:55;;;;;;;50.15;30.10;;;;;;;0.66;97.23;100295.56;5059439;28;20037;-70
2020/12/08 06:13:25;;;;;;;55.72;30.65;;;;;;;0.84;97.01;100327.63;5044843;28;20032;-70
2020/12/08 06:15:50;;;;;;;58.10;32.90;;;;;;;0.83;97.50;100320.69;5078013;28;20040;-71
2020/12/08 06:18:15;;;;;;;54.50;32.28;;;;;;;0.70;97.29;100310.16;5061321;28;20043;-70
2020/12/08 06:20:41;;;;;;;57.75;31.33;;;;;;;0.80;97.30;100322.69;5058296;28;20122;-70
2020/12/08 06:23:07;;;;;;;61.63;32.60;;;;;;;0.80;97.11;100323.50;5063337;28;20063;-70
2020/12/08 06:25:32;;;;;;;59.45;33.60;;;;;;;0.44;97.10;100269.88;5065150;28;20047;-71
2020/12/08 06:28:03;;;;;;;57.70;32.67;;;;;;;0.79;97.80;100328.88;5061209;28;20032;-70
2020/12/08 06:30:28;;;;;;;61.78;33.30;;;;;;;0.75;97.50;100331.72;5060614;28;20067;-71
2020/12/08 06:32:54;;;;;;;56.97;33.00;;;;;;;0.74;98.08;100327.41;5062877;28;20032;-70
2020/12/08 06:35:19;;;;;;;58.90;32.92;;;;;;;0.59;97.31;100307.41;5065225;28;20518;-71
2020/12/08 06:37:53;;;;;;;60.78;34.05;;;;;;;0.55;98.12;100309.41;5078468;28;20040;-71
2020/12/08 06:40:25;;;;;;;61.08;33.10;;;;;;;0.69;98.02;100341.78;5028392;28;20101;-71
2020/12/08 06:42:51;;;;;;;58.47;33.45;;;;;;;0.42;97.57;100295.41;5064487;28;20044;-70
2020/12/08 06:45:24;;;;;;;58.95;33.50;;;;;;;0.62;97.99;100343.97;5061904;28;20134;-71
2020/12/08 06:47:50;;;;;;;60.95;33.97;;;;;;;0.41;97.90;100310.28;5067481;28;20094;-70
2020/12/08 06:50:31;;;;;;;71.63;36.80;;;;;;;0.48;97.83;100330.91;5062986;28;20094;-70
2020/12/08 06:53:02;;;;;;;55.35;33.30;;;;;;;0.45;97.88;100332.78;5043456;28;20043;-71
2020/12/08 06:55:28;;;;;;;70.32;35.78;;;;;;;0.49;97.70;100354.41;5059109;28;20093;-71
2020/12/08 06:58:05;;;;;;;69.30;36.60;;;;;;;0.19;97.75;100316.13;5066837;28;20094;-71
2020/12/08 07:00:30;;;;;;;66.60;34.78;;;;;;;0.48;98.07;100359.78;5056520;28;20044;-70
2020/12/08 07:02:56;;;;;;;64.40;34.47;;;;;;;0.49;98.01;100364.91;5066423;28;20054;-71
2020/12/08 07:05:28;;;;;;;64.18;34.88;;;;;;;0.42;98.16;100343.47;5046175;28;20028;-71
2020/12/08 07:07:53;;;;;;;64.35;35.03;;;;;;;0.55;97.62;100361.06;5062812;28;20498;-71
2020/12/08 07:10:19;;;;;;;64.65;35.70;;;;;;;0.50;97.99;100344.78;5063696;28;20032;-71
2020/12/08 07:12:49;;;;;;;62.35;34.35;;;;;;;0.60;97.99;100367.72;5043222;28;20037;-70
2020/12/08 07:15:19;;;;;;;63.50;34.97;;;;;;;0.43;97.87;100336.47;5058764;28;20283;-71
2020/12/08 07:17:55;;;;;;;64.63;34.92;;;;;;;0.52;97.90;100356.84;5028495;28;20051;-70
2020/12/08 07:20:20;;;;;;;61.03;35.50;;;;;;;0.59;98.46;100368.66;5060819;28;20047;-70
2020/12/08 07:22:46;;;;;;;70.07;36.65;;;;;;;0.75;97.71;100386.88;5057338;28;20038;-70
2020/12/08 07:25:13;;;;;;;60.67;35.25;;;;;;;0.80;97.88;100391.00;5062850;28;20048;-70
2020/12/08 07:27:41;;;;;;;67.75;35.67;;;;;;;0.78;97.52;100372.69;5056962;28;20063;-70
2020/12/08 07:30:07;;;;;;;62.17;35.13;;;;;;;0.90;97.98;100387.63;5055793;28;20037;-70
2020/12/08 07:32:32;;;;;;;61.17;33.92;;;;;;;0.96;97.34;100396.06;5057544;28;20033;-70
2020/12/08 07:34:58;;;;;;;64.95;33.35;;;;;;;1.02;96.92;100385.13;5070877;28;20040;-70
2020/12/08 07:37:24;;;;;;;60.78;34.28;;;;;;;1.06;97.38;100391.88;5067192;28;20075;-69
2020/12/08 07:40:04;;;;;;;57.58;32.90;;;;;;;1.09;96.62;100385.59;5070002;28;20040;-70
2020/12/08 07:42:29;;;;;;;59.47;32.75;;;;;;;1.14;96.55;100389.59;5065077;28;20083;-70
2020/12/08 07:44:58;;;;;;;56.38;32.90;;;;;;;1.18;96.39;100395.47;5070434;28;20024;-70
2020/12/08 07:47:24;;;;;;;55.38;32.05;;;;;;;1.18;96.07;100392.84;5073452;28;20442;-70
2020/12/08 07:49:49;;;;;;;57.03;32.80;;;;;;;1.21;96.11;100396.09;5069656;28;20037;-70
2020/12/08 07:52:18;;;;;;;55.40;32.58;;;;;;;1.26;96.07;100398.41;5071820;28;20039;-70
2020/12/08 07:54:44;;;;;;;56.15;33.05;;;;;;;1.24;96.04;100397.66;5072494;28;20498;-70
2020/12/08 07:57:10;;;;;;;60.85;33.60;;;;;;;1.21;96.09;100384.75;5060952;28;20486;-70
2020/12/08 07:59:36;;;;;;;57.45;32.88;;;;;;;1.24;95.93;100373.19;5061278;28;20090;-70
2020/12/08 08:02:01;;;;;;;53.17;30.30;;;;;;;1.41;95.60;100403.56;5056485;28;20082;-70
2020/12/08 08:04:27;;;;;;;54.28;31.25;;;;;;;1.45;95.74;100405.88;5074116;28;20040;-70
2020/12/08 08:06:52;;;;;;;50.45;30.65;;;;;;;1.39;95.07;100380.03;5076991;28;20048;-71
2020/12/08 08:09:18;;;;;;;55.30;32.40;;;;;;;1.53;94.81;100398.34;5076417;28;20054;-70
2020/12/08 08:11:44;;;;;;;51.85;28.77;;;;;;;1.59;94.68;100404.09;5071003;28;20036;-72
2020/12/08 08:14:09;;;;;;;49.55;30.02;;;;;;;1.61;94.92;100402.22;5077338;28;20494;-69
2020/12/08 08:16:35;;;;;;;46.83;29.42;;;;;;;1.64;94.40;100410.72;5075041;28;20028;-70
2020/12/08 08:19:01;;;;;;;47.33;29.77;;;;;;;1.60;94.29;100393.50;5073297;28;20494;-70
2020/12/08 08:21:26;;;;;;;46.42;29.90;;;;;;;1.74;94.33;100424.09;5056486;28;20043;-70
2020/12/08 08:23:52;;;;;;;49.80;28.70;;;;;;;0.90;94.35;100282.53;5068042;28;20395;-70
2020/12/08 08:26:18;;;;;;;47.85;27.40;;;;;;;1.72;93.82;100419.88;5073701;28;20047;-70
2020/12/08 08:28:43;;;;;;;47.65;28.80;;;;;;;1.77;94.04;100429.13;5075164;28;20040;-70
2020/12/08 08:31:09;;;;;;;46.90;27.95;;;;;;;1.81;94.25;100432.41;5071973;28;20521;-70
2020/12/08 08:33:34;;;;;;;46.33;29.35;;;;;;;1.83;94.28;100433.97;5092207;28;20047;-69
2020/12/08 08:36:00;;;;;;;50.10;29.40;;;;;;;1.86;93.84;100432.06;5056614;28;20043;-70
2020/12/08 08:38:28;;;;;;;48.92;30.25;;;;;;;1.86;93.94;100435.56;5065330;28;20080;-69
2020/12/08 08:40:54;;;;;;;;;;;;;;;1.85;93.81;100428.63;5062721;28;20040;-70
2020/12/08 08:43:20;;;;;;;48.17;28.58;;;;;;;1.88;94.07;100435.44;5065161;28;19928;-68
2020/12/08 08:45:45;;;;;;;48.17;29.13;;;;;;;1.88;93.88;100433.66;5060059;28;21324;-68
2020/12/08 08:48:11;;;;;;;49.33;29.35;;;;;;;1.90;93.57;100431.75;5064694;28;20490;-69
2020/12/08 08:50:36;;;;;;;47.35;29.08;;;;;;;1.93;93.58;100442.06;5060196;28;20032;-68
2020/12/08 08:53:02;;;;;;;51.33;31.08;;;;;;;1.96;94.17;100436.59;5063219;28;20051;-68
2020/12/08 08:55:28;;;;;;;49.25;30.80;;;;;;;1.96;94.18;100452.38;5064503;28;20036;-69
2020/12/08 08:57:53;;;;;;;50.58;30.27;;;;;;;1.94;93.89;100443.75;5059255;28;20553;-69
2020/12/08 09:00:19;;;;;;;49.22;31.20;;;;;;;1.84;93.86;100424.28;5058904;28;20111;-68
2020/12/08 09:02:44;;;;;;;49.60;30.33;;;;;;;1.99;94.01;100451.31;5057619;28;20033;-68
2020/12/08 09:05:13;;;;;;;57.25;30.95;;;;;;;2.02;94.53;100450.28;5060707;28;20445;-69
2020/12/08 09:07:39;;;;;;;47.03;29.55;;;;;;;2.02;93.90;100440.59;5052965;28;20039;-69
2020/12/08 09:10:04;;;;;;;49.10;30.65;;;;;;;2.02;94.08;100437.13;5059756;28;20044;-70
2020/12/08 09:12:30;;;;;;;48.45;30.75;;;;;;;2.09;94.17;100441.84;5057075;28;20370;-69
2020/12/08 09:14:58;;;;;;;52.83;30.02;;;;;;;2.11;94.18;100447.00;5057166;28;20052;-69
2020/12/08 09:17:24;;;;;;;48.47;31.08;;;;;;;2.11;93.77;100444.38;5067816;28;20033;-69
2020/12/08 09:19:50;;;;;;;48.53;30.60;;;;;;;2.20;93.97;100453.41;5065506;28;20548;-69
2020/12/08 09:22:15;;;;;;;49.25;29.73;;;;;;;2.25;93.62;100453.91;5063596;28;20114;-69
2020/12/08 09:24:42;;;;;;;46.72;28.52;;;;;;;2.29;93.11;100448.34;5063416;28;20518;-69
2020/12/08 09:27:08;;;;;;;51.20;30.63;;;;;;;2.30;93.07;100446.53;5060668;28;20048;-69
2020/12/08 09:29:35;;;;;;;49.95;29.65;;;;;;;2.22;93.62;100431.28;5060771;28;20482;-69
2020/12/08 09:32:00;;;;;;;48.40;29.02;;;;;;;2.37;92.96;100449.56;5054711;28;21472;-69
2020/12/08 09:34:26;;;;;;;45.08;29.88;;;;;;;2.39;93.20;100445.03;5060928;28;20025;-69
2020/12/08 09:36:52;;;;;;;51.03;29.48;;;;;;;2.48;92.98;100446.19;5062592;28;20044;-69
2020/12/08 09:39:18;;;;;;;49.88;29.67;;;;;;;2.52;92.30;100443.19;5057393;28;20024;-69
2020/12/08 09:41:43;;;;;;;48.10;29.77;;;;;;;2.58;91.93;100455.91;5059263;28;20075;-69
2020/12/08 09:44:10;;;;;;;49.75;30.00;;;;;;;2.57;92.08;100443.72;5058618;28;20054;-70
2020/12/08 09:46:39;;;;;;;48.63;28.35;;;;;;;2.73;91.71;100443.44;5062600;28;20043;-70
2020/12/08 09:49:05;;;;;;;50.50;30.58;;;;;;;2.79;91.29;100443.94;5060804;28;20037;-70
2020/12/08 09:51:30;;;;;;;45.35;29.05;;;;;;;2.89;90.74;100445.78;5061933;28;20032;-69
2020/12/08 09:53:56;;;;;;;43.20;29.13;;;;;;;2.93;90.62;100446.38;5061971;28;20153;-70
2020/12/08 09:56:22;;;;;;;45.35;29.63;;;;;;;3.01;90.15;100441.41;5063452;28;20043;-69
2020/12/08 09:58:47;;;;;;;44.65;27.55;;;;;;;3.11;89.80;100448.63;5061772;28;20123;-70
2020/12/08 10:01:13;;;;;;;46.08;28.25;;;;;;;3.12;89.90;100443.22;5073389;28;20035;-70
2020/12/08 10:03:38;;;;;;;43.47;28.52;;;;;;;3.22;90.52;100446.03;5060403;28;20143;-70
2020/12/08 10:06:04;;;;;;;46.60;28.58;;;;;;;3.28;89.34;100447.34;5058811;28;20119;-70
2020/12/08 10:08:30;;;;;;;48.08;29.75;;;;;;;3.29;90.10;100455.16;5057870;28;20203;-70
2020/12/08 10:10:56;;;;;;;43.20;26.83;;;;;;;3.30;88.93;100434.91;5053177;28;20035;-70
2020/12/08 10:13:21;;;;;;;42.70;28.85;;;;;;;3.39;88.50;100444.78;5060008;28;20123;-70
2020/12/08 10:15:47;;;;;;;44.95;28.13;;;;;;;3.33;89.15;100429.41;5060312;28;20032;-70
2020/12/08 10:18:12;;;;;;;42.90;26.95;;;;;;;3.46;88.58;100453.88;5060405;28;20031;-70
2020/12/08 10:20:38;;;;;;;47.22;27.58;;;;;;;3.49;88.80;100450.16;5054590;28;20050;-70
2020/12/08 10:23:05;;;;;;;44.42;28.65;;;;;;;3.55;88.54;100454.13;5069262;28;20768;-70
2020/12/08 10:25:33;;;;;;;43.05;27.85;;;;;;;3.53;88.81;100451.63;5064457;28;20526;-70
2020/12/08 10:27:59;;;;;;;40.72;27.08;;;;;;;3.53;88.36;100456.91;5062834;28;20036;-70
2020/12/08 10:30:25;;;;;;;40.05;26.80;;;;;;;3.48;87.69;100456.41;5068254;28;20056;-70
2020/12/08 10:32:50;;;;;;;39.88;26.88;;;;;;;3.47;88.19;100452.94;5066002;28;20051;-70
2020/12/08 10:35:16;;;;;;;41.17;28.85;;;;;;;2.97;88.32;100371.41;5058022;28;20036;-70
2020/12/08 10:37:42;;;;;;;45.08;28.73;;;;;;;3.45;88.82;100446.94;5070139;28;20040;-70
2020/12/08 10:40:07;;;;;;;44.88;28.85;;;;;;;3.48;88.82;100457.25;5059193;28;20082;-70
2020/12/08 10:42:33;;;;;;;40.38;26.80;;;;;;;3.53;88.28;100454.25;5055533;28;20041;-70
2020/12/08 10:44:58;;;;;;;41.83;28.35;;;;;;;3.53;88.56;100455.09;5054748;28;20044;-70
2020/12/08 10:47:24;;;;;;;42.15;27.92;;;;;;;3.53;87.96;100463.00;5061304;28;20131;-70
2020/12/08 10:49:49;;;;;;;41.00;28.55;;;;;;;3.53;87.62;100459.53;5063097;28;20037;-70
2020/12/08 10:52:15;;;;;;;39.25;27.55;;;;;;;3.49;88.47;100458.94;5057037;28;20053;-68
2020/12/08 10:54:40;;;;;;;40.55;27.83;;;;;;;3.54;88.15;100458.59;5060747;28;20039;-69
2020/12/08 10:57:06;;;;;;;39.38;27.08;;;;;;;3.58;88.74;100462.69;5040037;28;20039;-69
2020/12/08 10:59:31;;;;;;;40.67;28.48;;;;;;;3.58;88.84;100461.81;5058479;28;20037;-68
2020/12/08 11:01:57;;;;;;;41.25;28.33;;;;;;;3.41;88.84;100421.72;5053793;28;20046;-69
2020/12/08 11:04:23;;;;;;;40.38;28.05;;;;;;;3.68;87.20;100458.38;5059669;28;20115;-69
2020/12/08 11:06:48;;;;;;;40.33;28.88;;;;;;;3.66;87.32;100460.28;5060086;28;20048;-69
2020/12/08 11:09:14;;;;;;;43.50;29.98;;;;;;;3.63;88.01;100457.03;5060584;28;20123;-69
2020/12/08 11:11:39;;;;;;;43.03;27.98;;;;;;;3.70;87.61;100454.78;5063556;28;20111;-69